Luxembourg-Findel International Airport

ELLX · Luxembourg, 卢森堡

罗盘
风向 的 风向 030° 卢森堡-芬德尔国际机场 6/24
风: 7 kt, 3 beaufort

6 kt

4 kt
改变
0 ft 1.000 2.000 3.000 4.000 5.000
CAVOK
METAR ELLX 252120Z 03007KT CAVOK 20/13 Q1013 NOSIG

METAR 卢森堡-芬德尔国际机场 - ELLX/LUX

卢森堡-芬德尔国际机场是,卢森堡中的大型机场。 该机场位于纬度49,62646和经度6,21157。 该机场有一条跑道: 6/24. 本场的ICAO机场代码为ELLX。 该机场的IATA代码为LUX。 机场在Bruxelles FIR中。

该航空气象观测是针对卢森堡-芬德尔国际机场在2024年6月25日 23:20, 当地时间进行的。

机场观察

风向为030°,速度为7 kt。

天气为CAVOK。这意味着在5.000 ft或MSA(最低安全高度)以下(以较高者为准)以下没有云。这也意味着没有观测到积雨云或高耸的积云,可见度为10 km 或者更多或更高。此外,不会有雾,降雨或其他重要天气。

温度和风寒是20 °C。 露点为13 °C,相对湿度为64%。 海平面上的气压为1013 hPa (QNH)。

白天

今天,太阳从05:29升起,在21:46降落。 这适用于卢森堡-芬德尔国际机场,世界夏令时可能有所不同。 当地时间与世界标准时间之间的时差为+2 小时。 夏令时目前正在进行中。

公司介绍

我们没有关于这个机场的公司信息。

体会

到Vliegles.nl去找飞行课程,跳伞和其他飞行体验。 浏览页面,了解卢森堡-芬德尔国际机场附近所有可用的活动。 你也可以使用搜索功能来寻找你所在地附近的特定飞行课程、跳伞或其他飞行体验。

跑道

Id 标题 侧风 逆风 侧风 %
6/24 060°-240° 4 kt 6 kt 50 %

逆风成分最大的方向会被突出显示,并用于横风计算。 这并不一定意味着这个方向在使用。

温度 & 天气

温度 20 °C
露点 13 °C
相对湿度 64%
Kp-index 0 (0-9)

白天

日出
05:29 (5:50)
中午
13:37
日落
21:46

小工具

你想在你的网站上有一个关于卢森堡-芬德尔国际机场的当前航空天气(METAR)的小部件吗?

显示HTML代码
报告变更